Latest Weather Observations for Dwellingup

IDW60801

Issued at 6:23 pm WST Tuesday 19 June 2018 (issued every 10 minutes, with the page automatically refreshed every 10 minutes)

About weather observations | Map of weather stations | Latest weather observations for WA | Other Formats
Station Details ID: 009538 Name: DWELLINGUP Lat: -32.71 Lon: 116.06 Height: 267.0 m
Data from the previous 72 hours. | See also: Recent months at Dwellingup
Date/Time
WST
Temp
°C
App
Temp
°C
Dew
Point
°C
Rel
Hum
%
Delta-T
°C
Wind Press
QNH
hPa
Press
MSL
hPa
Rain since
9am
mm
Dir  Spd
km/h
Gust
km/h
Spd
kts
Gust
kts
19/06:00pm 13.3 11.5 12.2 93 0.6 WNW 13 24 7 13 1025.3 1025.4 4.2
19/05:30pm 13.1 11.6 11.8 92 0.7 WNW 11 19 6 10 1025.1 1025.2 4.0
19/05:00pm 13.4 11.6 12.1 92 0.7 W 13 20 7 11 1025.1 1025.2 4.0
19/04:30pm 13.4 10.7 11.8 90 0.9 W 17 28 9 15 1025.0 1025.1 3.2
19/04:00pm 14.5 12.4 12.4 87 1.2 WSW 15 26 8 14 1024.5 1024.6 1.6
19/03:30pm 14.9 13.6 12.4 85 1.4 WNW 11 19 6 10 1024.3 1024.4 1.0
19/03:00pm 14.3 12.9 12.3 88 1.1 WNW 11 19 6 10 1024.3 1024.4 1.0
19/02:30pm 15.0 12.7 11.8 81 1.8 WNW 15 32 8 17 1024.1 1024.2 0.6
19/02:00pm 15.3 13.4 11.7 79 2.0 NW 13 24 7 13 1024.0 1024.1 0.2
19/01:30pm 14.7 13.2 11.8 83 1.6 W 11 19 6 10 1024.2 1024.3 0.2
19/01:00pm 14.6 12.1 11.2 80 1.8 WNW 15 26 8 14 1024.2 1024.3 0.2
19/12:30pm 14.3 12.0 11.8 85 1.4 WNW 15 28 8 15 1024.5 1024.6 0.2
19/12:00pm 14.3 12.2 11.3 82 1.6 NW 13 22 7 12 1024.8 1024.9 0.0
19/11:30am 14.0 12.1 11.7 86 1.2 NW 13 20 7 11 1025.1 1025.2 0.0
19/11:00am 14.2 12.8 12.1 87 1.1 NW 11 17 6 9 1025.1 1025.2 0.0
19/10:30am 12.9 11.1 11.0 88 1.0 NW 11 19 6 10 1025.4 1025.5 0.0
19/10:00am 12.9 11.1 11.0 88 1.0 NNW 11 17 6 9 1025.2 1025.3 0.0
19/09:30am 11.9 10.6 11.1 95 0.4 NNW 9 15 5 8 1025.0 1025.1 0.0
19/09:00am 10.5 9.2 9.9 96 0.3 NNW 7 11 4 6 1025.0 1025.1 8.2
19/08:30am 9.0 6.9 8.4 96 0.3 N 9 11 5 6 1024.7 1024.8 8.2
19/08:00am 8.1 5.4 7.3 95 0.4 NNW 11 15 6 8 1024.5 1024.6 8.0
19/07:30am 7.2 4.3 6.5 95 0.3 NNW 11 13 6 7 1024.1 1024.2 8.0
19/07:00am 7.5 5.6 6.8 95 0.3 WNW 6 11 3 6 1023.9 1024.0 8.0
19/06:30am 6.6 4.0 5.9 95 0.3 WNW 9 11 5 6 1023.2 1023.4 8.0
19/06:00am 6.5 3.8 5.6 94 0.4 NNW 9 11 5 6 1022.8 1022.9 8.0
19/05:30am 6.7 4.0 5.8 94 0.4 NW 9 11 5 6 1022.7 1022.8 8.0
19/05:00am 6.9 4.3 6.0 94 0.4 WNW 9 15 5 8 1022.6 1022.7 7.8
19/04:30am 7.0 4.4 6.1 94 0.4 NW 9 11 5 6 1022.4 1022.5 7.8
19/04:00am 7.4 4.5 6.5 94 0.4 WNW 11 15 6 8 1022.2 1022.3 7.8
19/03:30am 7.3 4.8 6.4 94 0.4 NW 9 13 5 7 1022.2 1022.3 7.8
19/03:00am 8.0 5.6 7.1 94 0.4 W 9 13 5 7 1022.0 1022.1 7.8
19/02:30am 8.4 5.0 7.5 94 0.4 WSW 15 20 8 11 1022.0 1022.1 7.8
19/02:00am 8.0 4.9 7.1 94 0.4 WNW 13 17 7 9 1021.9 1022.0 7.8
19/01:30am 7.2 4.3 6.3 94 0.4 W 11 17 6 9 1021.9 1022.0 7.4
19/01:00am 7.2 4.6 6.3 94 0.4 WSW 9 13 5 7 1021.7 1021.8 7.2
19/12:30am 7.7 5.3 6.8 94 0.4 W 9 15 5 8 1021.7 1021.8 7.2
19/12:00am 7.0 4.4 5.9 93 0.5 W 9 11 5 6 1021.6 1021.7 7.2
 
Date/Time
WST
Temp
°C
App
Temp
°C
Dew
Point
°C
Rel
Hum
%
Delta-T
°C
Wind Press
QNH
hPa
Press
MSL
hPa
Rain since
9am
mm
Dir  Spd
km/h
Gust
km/h
Spd
kts
Gust
kts
18/11:30pm 7.2 4.2 6.1 93 0.5 WSW 11 17 6 9 1021.7 1021.8 7.2
18/11:00pm 7.8 5.3 6.7 93 0.5 SW 9 13 5 7 1021.6 1021.7 7.2
18/10:30pm 7.8 5.3 6.7 93 0.5 SW 9 11 5 6 1021.4 1021.5 7.0
18/10:00pm 7.9 5.4 6.7 92 0.6 SSW 9 11 5 6 1021.5 1021.6 7.0
18/09:30pm 7.7 5.2 6.5 92 0.6 WNW 9 17 5 9 1021.7 1021.8 6.6
18/09:00pm 8.1 6.6 6.6 90 0.7 W 4 7 2 4 1021.3 1021.4 6.6
18/08:30pm 8.7 5.9 7.0 89 0.8 WSW 11 17 6 9 1021.4 1021.5 6.6
18/08:00pm 8.9 5.7 6.7 86 1.0 SW 13 20 7 11 1021.2 1021.3 6.6
18/07:30pm 8.8 6.4 6.8 87 0.9 WSW 9 17 5 9 1020.5 1020.6 6.2
18/07:00pm 8.8 6.4 6.8 87 0.9 SW 9 15 5 8 1020.1 1020.2 6.2
18/06:30pm 9.3 6.3 6.2 81 1.5 WSW 11 17 6 9 1019.8 1019.9 6.2
18/06:00pm 9.1 6.1 6.2 82 1.4 WSW 11 17 6 9 1018.7 1018.8 6.0
18/05:30pm 9.8 6.8 6.0 77 1.8 W 11 20 6 11 1018.2 1018.3 6.0
18/05:00pm 10.8 7.2 5.1 68 2.6 WSW 13 22 7 12 1017.4 1017.5 6.0
18/04:30pm 11.0 7.2 5.7 70 2.5 WSW 15 28 8 15 1016.8 1016.9 6.0
18/04:00pm 12.3 8.3 6.6 68 2.8 SW 17 37 9 20 1016.4 1016.4 6.0
18/03:30pm 12.6 9.4 6.9 68 2.8 WSW 13 32 7 17 1016.2 1016.2 6.0
18/03:00pm 11.2 8.3 8.1 81 1.5 WSW 13 28 7 15 1016.5 1016.5 6.0
18/02:30pm 11.6 9.2 8.5 81 1.6 WSW 11 26 6 14 1016.3 1016.3 6.0
18/02:00pm 11.0 7.5 8.6 85 1.2 SW 17 30 9 16 1016.3 1016.3 6.0
18/01:30pm 11.0 7.1 6.9 76 2.0 SSW 17 26 9 14 1016.0 1016.0 5.2
18/01:00pm 12.0 8.4 8.3 78 1.8 WSW 17 32 9 17 1015.9 1015.9 5.2
18/12:30pm 10.6 6.5 8.5 87 1.0 SW 20 37 11 20 1016.1 1016.1 5.2
18/12:00pm 10.1 6.8 7.9 86 1.1 WNW 15 30 8 16 1015.4 1015.5 2.6
18/11:30am 13.4 8.6 7.4 67 3.0 W 22 41 12 22 1015.2 1015.3 0.4
18/11:00am 12.4 8.9 8.7 78 1.9 WNW 17 37 9 20 1015.2 1015.3 0.4
18/10:30am 11.3 7.1 7.6 78 1.8 W 19 33 10 18 1015.2 1015.3 0.0
18/10:00am 13.3 8.9 7.5 68 2.9 W 20 35 11 19 1014.8 1014.9 0.0
18/09:30am 12.3 8.9 9.1 81 1.6 W 17 32 9 17 1014.6 1014.7 0.0
18/09:00am 11.6 8.1 8.8 83 1.4 W 17 30 9 16 1014.1 1014.2 24.6
18/08:30am 11.6 8.7 9.5 87 1.1 W 15 28 8 15 1013.8 1013.9 24.4
18/08:00am 11.2 7.9 9.5 89 0.9 W 17 35 9 19 1013.4 1013.5 24.4
18/07:30am 11.4 7.6 9.7 89 0.9 W 20 37 11 20 1012.8 1012.8 24.2
18/07:00am 11.6 8.2 10.5 93 0.6 W 19 37 10 20 1012.4 1012.4 24.2
18/06:30am 11.7 9.4 10.6 93 0.6 NW 13 20 7 11 1012.1 1012.1 23.8
18/06:00am 11.5 8.8 10.4 93 0.6 WNW 15 22 8 12 1011.9 1011.9 23.8
18/05:30am 11.6 9.3 10.5 93 0.6 NW 13 22 7 12 1011.3 1011.4 21.6
18/05:00am 11.6 8.9 10.5 93 0.6 W 15 24 8 13 1011.0 1011.1 21.2
18/04:30am 11.6 8.5 10.3 92 0.7 W 17 32 9 17 1011.1 1011.2 20.4
18/04:00am 11.7 7.3 10.3 91 0.7 W 24 56 13 30 1011.6 1011.7 18.4
18/03:53am 11.9 7.6 10.6 92 0.7 WSW 24 56 13 30 1011.6 1011.7 17.8
18/03:30am 12.6 8.5 11.3 92 0.7 WSW 24 39 13 21 1011.1 1011.2 15.8
18/03:00am 13.2 10.6 11.9 92 0.7 WSW 17 37 9 20 1010.5 1010.6 14.2
18/02:30am 14.3 12.5 13.2 93 0.6 NW 15 30 8 16 1009.8 1009.8 9.2
18/02:00am 14.4 11.5 12.8 90 0.9 NNW 20 33 11 18 1010.2 1010.3 7.0
18/01:30am 15.4 11.8 13.2 87 1.2 NNW 24 43 13 23 1010.0 1010.0 1.2
18/01:00am 15.6 11.6 11.8 78 2.1 NNW 24 43 13 23 1010.2 1010.3 0.4
18/12:30am 16.8 11.6 11.5 71 2.9 NNW 30 52 16 28 1010.3 1010.4 0.2
18/12:10am 16.7 11.6 10.5 67 3.3 NNW 28 46 15 25 1010.2 1010.3 0.2
18/12:00am 16.8 12.5 10.6 67 3.4 NNW 24 44 13 24 1010.3 1010.4 0.2
 
Date/Time
WST
Temp
°C
App
Temp
°C
Dew
Point
°C
Rel
Hum
%
Delta-T
°C
Wind Press
QNH
hPa
Press
MSL
hPa
Rain since
9am
mm
Dir  Spd
km/h
Gust
km/h
Spd
kts
Gust
kts
17/11:30pm 16.8 14.1 10.2 65 3.5 WNW 15 28 8 15 1011.0 1011.1 0.2
17/11:00pm 18.5 11.7 7.6 49 5.6 NNW 33 57 18 31 1011.1 1011.2 0.2
17/10:30pm 18.2 11.2 5.8 44 6.2 NNW 32 54 17 29 1011.0 1011.1 0.2
17/10:00pm 15.6 9.3 5.5 51 4.9 N 28 52 15 28 1011.4 1011.5 0.2
17/09:56pm 15.3 8.9 5.2 51 4.8 N 28 52 15 28 1011.4 1011.5 0.2
17/09:30pm 15.0 9.7 5.0 51 4.8 N 22 33 12 18 1012.2 1012.2 0.2
17/09:00pm 14.3 9.1 5.4 55 4.3 N 22 35 12 19 1012.4 1012.4 0.2
17/08:30pm 14.1 9.0 6.0 58 3.9 N 22 32 12 17 1012.8 1012.8 0.2
17/08:00pm 13.6 9.0 6.5 62 3.5 N 20 32 11 17 1013.1 1013.1 0.2
17/07:30pm 14.1 9.5 6.5 60 3.7 N 20 28 11 15 1013.4 1013.5 0.2
17/07:00pm 13.3 8.6 6.2 62 3.4 N 20 26 11 14 1013.6 1013.7 0.2
17/06:30pm 13.4 9.3 6.0 61 3.6 N 17 28 9 15 1013.6 1013.7 0.2
17/06:00pm 14.2 9.7 6.3 59 3.8 N 19 28 10 15 1013.7 1013.8 0.2
17/05:30pm 14.0 9.8 7.3 64 3.3 N 19 30 10 16 1013.8 1013.9 0.2
17/05:00pm 15.6 12.3 6.3 54 4.6 NNW 13 17 7 9 1013.6 1013.7 0.2
17/04:30pm 18.5 14.4 4.3 39 6.9 N 15 26 8 14 1013.9 1014.0 0.2
17/04:00pm 19.6 14.9 3.3 34 7.8 N 17 33 9 18 1014.4 1014.5 0.2
17/03:30pm 20.0 14.5 1.9 30 8.4 N 20 33 11 18 1014.5 1014.6 0.2
17/03:08pm 20.2 13.0 3.0 32 8.2 N 30 48 16 26 1014.5 1014.6 0.2
17/03:00pm 20.3 14.5 2.2 30 8.5 N 22 43 12 23 1014.5 1014.6 0.2
17/02:30pm 20.4 15.0 2.3 30 8.5 NNW 20 37 11 20 1014.6 1014.7 0.2
17/02:00pm 20.5 16.1 4.5 35 7.9 N 17 30 9 16 1014.9 1015.0 0.2
17/01:30pm 19.6 14.7 4.1 36 7.5 N 19 32 10 17 1015.2 1015.3 0.2
17/01:00pm 19.6 15.5 4.5 37 7.4 N 15 24 8 13 1015.9 1015.9 0.0
17/12:30pm 19.2 14.3 4.2 37 7.3 NNE 19 30 10 16 1016.4 1016.4 0.0
17/12:00pm 18.6 14.1 4.4 39 6.9 NNE 17 35 9 19 1017.0 1017.1 0.0
17/11:30am 17.5 13.7 3.8 40 6.5 N 13 24 7 13 1017.5 1017.6 0.0
17/11:00am 16.9 12.0 3.9 42 6.1 NNE 19 30 10 16 1017.9 1018.0 0.0
17/10:30am 16.1 11.0 4.2 45 5.6 NNE 20 33 11 18 1018.5 1018.6 0.0
17/10:00am 15.0 10.0 4.7 50 4.9 NNE 20 37 11 20 1018.7 1018.8 0.0
17/09:30am 13.8 9.0 4.4 53 4.4 NNE 19 28 10 15 1019.1 1019.2 0.0
17/09:00am 12.6 7.6 3.8 55 4.0 NNE 19 30 10 16 1019.3 1019.4 0.0
17/08:30am 11.4 6.4 3.4 58 3.6 NNE 19 28 10 15 1019.5 1019.6 0.0
17/08:00am 10.1 5.1 3.6 64 2.9 NNE 19 30 10 16 1019.4 1019.5 0.0
17/07:30am 7.6 3.4 3.8 77 1.7 NNE 15 24 8 13 1019.5 1019.6 0.0
17/07:00am 7.9 3.3 3.8 75 1.8 NNE 17 32 9 17 1019.7 1019.7 0.0
17/06:30am 7.6 2.7 4.0 78 1.6 NNE 19 30 10 16 1019.5 1019.6 0.0
17/06:00am 8.3 3.7 3.9 74 1.9 NNE 17 28 9 15 1019.7 1019.7 0.0
17/05:30am 7.9 3.8 4.3 78 1.6 NNE 15 22 8 12 1019.9 1020.0 0.0
17/05:00am 6.8 2.7 4.3 84 1.1 NE 15 20 8 11 1020.2 1020.3 0.0
17/04:30am 6.0 1.9 4.6 91 0.6 NE 15 22 8 12 1020.4 1020.5 0.0
17/04:00am 5.9 2.3 4.9 93 0.4 NE 13 19 7 10 1020.6 1020.7 0.0
17/03:30am 4.2 0.2 3.0 92 0.5 NE 13 20 7 11 1020.8 1020.9 0.0
17/03:00am 4.1 0.1 2.9 92 0.5 NE 13 20 7 11 1021.2 1021.3 0.0
17/02:30am 4.7 0.5 3.7 93 0.4 NE 15 24 8 13 1021.5 1021.6 0.0
17/02:00am 4.4 0.8 3.2 92 0.5 NE 11 15 6 8 1021.9 1022.0 0.0
17/01:30am 4.7 0.8 3.5 92 0.5 ENE 13 19 7 10 1022.2 1022.3 0.0
17/01:00am 4.9 0.7 3.7 92 0.5 ENE 15 19 8 10 1022.2 1022.3 0.0
17/12:30am 5.2 1.4 4.0 92 0.5 E 13 17 7 9 1022.3 1022.4 0.0
17/12:00am 5.5 1.8 4.2 91 0.6 ENE 13 17 7 9 1022.7 1022.8 0.0
 
Date/Time
WST
Temp
°C
App
Temp
°C
Dew
Point
°C
Rel
Hum
%
Delta-T
°C
Wind Press
QNH
hPa
Press
MSL
hPa
Rain since
9am
mm
Dir  Spd
km/h
Gust
km/h
Spd
kts
Gust
kts
16/11:30pm 5.8 2.1 4.4 91 0.6 E 13 17 7 9 1022.9 1023.1 0.0
16/11:00pm 6.1 2.4 4.7 91 0.6 E 13 19 7 10 1023.0 1023.2 0.0
16/10:30pm 6.5 2.5 5.1 91 0.6 E 15 19 8 10 1023.2 1023.4 0.0
16/10:00pm 6.8 3.3 5.3 90 0.7 E 13 15 7 8 1023.6 1023.7 0.0
16/09:30pm 7.1 4.0 5.6 90 0.7 ESE 11 13 6 7 1023.8 1023.9 0.0
16/09:00pm 7.6 4.6 5.9 89 0.8 E 11 13 6 7 1023.9 1024.0 0.0
16/08:30pm 7.9 4.5 6.0 88 0.9 ENE 13 15 7 8 1023.8 1023.9 0.0
16/08:00pm 8.4 5.5 6.4 87 0.9 ENE 11 13 6 7 1023.8 1023.9 0.0
16/07:30pm 9.1 6.7 6.9 86 1.0 ENE 9 13 5 7 1023.9 1024.0 0.0
16/07:00pm 9.6 7.2 7.0 84 1.2 NE 9 13 5 7 1023.8 1023.9 0.0
16/06:30pm 10.9 8.2 7.4 79 1.7 NE 11 15 6 8 1023.8 1023.9 0.0

Other Formats:

Comma delimited format used in spreadsheet applications
http://www.bom.gov.au/fwo/IDW60801/IDW60801.94620.axf

JavaScript Object Notation format (JSON) in row-major order
http://www.bom.gov.au/fwo/IDW60801/IDW60801.94620.json